Time;durP1;ratioP1;P1;durP2;ratioP2;P2;SDS_P1;SDS_P2;PMS_P1;PMS_P2;Temp;Humidity;BMP_temperature;BMP_pressure;BME280_temperature;BME280_humidity;BME280_pressure;Samples;Min_cycle;Max_cycle;Signal;HPM_P1;HPM_P2
2020/12/17 00:00:07;;;;;;;;;;;2.90;99.90;;;;;;5014262;28;20367;-77
2020/12/17 00:02:33;;;;;;;;;;;2.90;99.90;;;;;;5030096;28;19952;-73
2020/12/17 00:04:58;;;;;;;;;;;2.80;99.90;;;;;;5033787;28;20336;-73
2020/12/17 00:07:24;;;;;;;;;;;2.80;99.90;;;;;;5033678;28;19916;-75
2020/12/17 00:09:49;;;;;;;;;;;2.80;99.90;;;;;;5033716;28;19910;-73
2020/12/17 00:12:14;;;;;;;;;;;2.80;99.90;;;;;;5033967;28;19909;-73
2020/12/17 00:14:40;;;;;;;;;;;2.90;99.90;;;;;;5033718;28;20008;-74
2020/12/17 00:17:05;;;;;;;;;;;2.90;99.90;;;;;;5033370;28;20366;-73
2020/12/17 00:19:31;;;;;;;;;;;2.90;99.90;;;;;;5033742;28;19909;-73
2020/12/17 00:21:56;;;;;;;;;;;3.00;99.90;;;;;;5033564;28;19916;-73
2020/12/17 00:24:22;;;;;;;;;;;2.90;99.90;;;;;;5033398;28;19929;-75
2020/12/17 00:26:47;;;;;;;;;;;2.90;99.90;;;;;;5033756;28;19963;-73
2020/12/17 00:29:13;;;;;;;;;;;2.90;99.90;;;;;;5033441;28;19917;-73
2020/12/17 00:31:38;;;;;;;;;;;2.90;99.90;;;;;;5031932;28;19956;-75
2020/12/17 00:34:04;;;;;;;;;;;2.90;99.90;;;;;;5033245;28;20320;-73
2020/12/17 00:36:29;;;;;;;;;;;2.90;99.90;;;;;;5033068;28;20392;-73
2020/12/17 00:38:55;;;;;;;;;;;2.90;99.90;;;;;;5033244;28;19909;-73
2020/12/17 00:41:20;;;;;;;;;;;2.80;99.90;;;;;;5032834;28;19966;-77
2020/12/17 00:43:46;;;;;;;;;;;2.70;99.90;;;;;;5033020;28;19913;-73
2020/12/17 00:46:12;;;;;;;;;;;2.70;99.90;;;;;;5031790;28;19917;-73
2020/12/17 00:48:37;;;;;;;;;;;2.70;99.90;;;;;;5032646;28;19909;-73
2020/12/17 00:51:03;;;;;;;;;;;2.70;99.90;;;;;;5033360;28;20270;-74
2020/12/17 00:53:28;;;;;;;;;;;2.60;99.90;;;;;;5032883;28;19919;-73
2020/12/17 00:55:54;;;;;;;;;;;2.60;99.90;;;;;;5032613;28;20281;-73
2020/12/17 00:58:19;;;;;;;;;;;2.50;99.90;;;;;;5032895;28;19955;-73
2020/12/17 01:00:45;;;;;;;;;;;2.40;99.90;;;;;;5032969;28;19909;-77
2020/12/17 01:03:10;;;;;;;;;;;2.40;99.90;;;;;;5031399;28;19913;-73
2020/12/17 01:05:36;;;;;;;;;;;2.40;99.90;;;;;;5032653;28;19909;-73
2020/12/17 01:08:01;;;;;;;;;;;2.40;99.90;;;;;;5032521;28;19909;-73
2020/12/17 01:10:27;;;;;;;;;;;2.30;99.90;;;;;;5032693;28;19909;-73
2020/12/17 01:12:53;;;;;;;;;;;2.20;99.90;;;;;;5032538;28;19913;-73
2020/12/17 01:15:18;;;;;;;;;;;2.20;99.90;;;;;;5032599;28;20263;-73
2020/12/17 01:17:44;;;;;;;;;;;2.20;99.90;;;;;;5032255;28;19955;-73
2020/12/17 01:20:09;;;;;;;;;;;2.20;99.90;;;;;;5016408;28;19910;-77
2020/12/17 01:22:35;;;;;;;;;;;2.10;99.90;;;;;;5012588;28;19909;-73
2020/12/17 01:25:00;;;;;;;;;;;2.10;99.90;;;;;;5012435;28;19913;-73
2020/12/17 01:27:29;;;;;;;;;;;2.10;99.90;;;;;;5012402;28;19910;-74
2020/12/17 01:29:55;;;;;;;;;;;2.00;99.90;;;;;;5012599;28;20344;-73
2020/12/17 01:32:20;;;;;;;;;;;1.90;99.90;;;;;;5012538;28;19956;-73
2020/12/17 01:34:46;;;;;;;;;;;1.90;99.90;;;;;;5012570;28;19916;-76
2020/12/17 01:37:11;;;;;;;;;;;1.90;99.90;;;;;;5012082;28;19909;-73
2020/12/17 01:39:37;;;;;;;;;;;1.90;99.90;;;;;;5012422;28;19909;-73
2020/12/17 01:42:02;;;;;;;;;;;1.90;99.90;;;;;;5012116;28;19971;-73
2020/12/17 01:44:27;;;;;;;;;;;2.00;99.90;;;;;;5012340;28;20009;-73
2020/12/17 01:46:53;;;;;;;;;;;1.90;99.90;;;;;;5010660;28;19933;-73
2020/12/17 01:49:22;;;;;;;;;;;1.90;99.90;;;;;;5019842;28;19920;-73
2020/12/17 01:51:48;;;;;;;;;;;1.90;99.90;;;;;;5011692;28;19939;-73
2020/12/17 01:54:13;;;;;;;;;;;1.80;99.90;;;;;;5012897;28;20362;-74
2020/12/17 01:56:41;;;;;;;;;;;1.70;99.90;;;;;;5011786;28;19916;-73
2020/12/17 01:59:09;;;;;;;;;;;1.70;99.90;;;;;;5012047;28;19909;-76
2020/12/17 02:01:35;;;;;;;;;;;1.70;99.90;;;;;;5012073;28;19910;-73
2020/12/17 02:04:01;;;;;;;;;;;1.70;99.90;;;;;;5010588;28;19913;-73
2020/12/17 02:06:27;;;;;;;;;;;1.80;99.90;;;;;;5011516;28;19910;-73
2020/12/17 02:08:52;;;;;;;;;;;1.80;99.90;;;;;;5010920;28;19917;-75
2020/12/17 02:11:18;;;;;;;;;;;1.90;99.90;;;;;;5011833;28;19917;-73
2020/12/17 02:13:45;;;;;;;;;;;1.90;99.90;;;;;;5010543;28;19964;-73
2020/12/17 02:16:11;;;;;;;;;;;1.90;99.90;;;;;;5011507;28;19914;-74
2020/12/17 02:18:37;;;;;;;;;;;1.90;99.90;;;;;;5011771;28;20005;-76
2020/12/17 02:21:02;;;;;;;;;;;1.90;99.90;;;;;;5010351;28;19975;-73
2020/12/17 02:23:28;;;;;;;;;;;1.80;99.90;;;;;;5011598;28;19979;-73
2020/12/17 02:25:53;;;;;;;;;;;1.80;99.90;;;;;;5017992;28;19956;-73
2020/12/17 02:28:20;;;;;;;;;;;1.80;99.90;;;;;;5031251;28;19939;-74
2020/12/17 02:30:45;;;;;;;;;;;1.70;99.90;;;;;;5031414;28;19910;-73
2020/12/17 02:33:11;;;;;;;;;;;1.70;99.90;;;;;;5031210;28;19917;-76
2020/12/17 02:35:37;;;;;;;;;;;1.70;99.90;;;;;;5029693;28;19910;-73
2020/12/17 02:38:03;;;;;;;;;;;1.60;99.90;;;;;;5031195;28;19909;-73
2020/12/17 02:40:28;;;;;;;;;;;1.60;99.90;;;;;;5031274;28;19920;-73
2020/12/17 02:42:54;;;;;;;;;;;1.60;99.90;;;;;;5031146;28;19909;-73
2020/12/17 02:45:19;;;;;;;;;;;1.50;99.90;;;;;;5031058;28;19920;-77
2020/12/17 02:47:45;;;;;;;;;;;1.40;99.90;;;;;;5030853;28;20023;-72
2020/12/17 02:50:12;;;;;;;;;;;1.40;99.90;;;;;;5031062;28;19917;-72
2020/12/17 02:52:37;;;;;;;;;;;1.40;99.90;;;;;;5031104;28;19913;-76
2020/12/17 02:55:03;;;;;;;;;;;1.40;99.90;;;;;;5024145;28;19956;-72
2020/12/17 02:57:29;;;;;;;;;;;1.30;99.90;;;;;;5011032;28;19940;-73
2020/12/17 02:59:54;;;;;;;;;;;1.40;99.90;;;;;;5011244;28;19941;-73
2020/12/17 03:02:19;;;;;;;;;;;1.40;99.90;;;;;;5011241;28;20325;-77
2020/12/17 03:04:45;;;;;;;;;;;1.40;99.90;;;;;;5013803;28;19913;-72
2020/12/17 03:07:10;;;;;;;;;;;1.50;99.90;;;;;;5015243;28;19913;-72
2020/12/17 03:09:36;;;;;;;;;;;1.40;99.90;;;;;;5013749;28;19959;-75
2020/12/17 03:12:01;;;;;;;;;;;1.40;99.90;;;;;;5014979;28;19932;-73
2020/12/17 03:14:27;;;;;;;;;;;1.40;99.90;;;;;;5013757;28;19956;-73
2020/12/17 03:16:52;;;;;;;;;;;1.30;99.90;;;;;;5014634;28;19918;-73
2020/12/17 03:19:18;;;;;;;;;;;1.30;99.90;;;;;;5014898;28;19910;-72
2020/12/17 03:21:43;;;;;;;;;;;1.20;99.90;;;;;;5014689;28;20386;-73
2020/12/17 03:24:09;;;;;;;;;;;1.20;99.90;;;;;;5015540;28;19914;-73
2020/12/17 03:26:34;;;;;;;;;;;1.20;99.90;;;;;;5014871;28;19916;-73
2020/12/17 03:29:00;;;;;;;;;;;1.20;99.90;;;;;;5014807;28;19932;-72
2020/12/17 03:31:25;;;;;;;;;;;1.10;99.90;;;;;;5014659;28;19917;-73
2020/12/17 03:33:51;;;;;;;;;;;1.10;99.90;;;;;;5014539;28;19914;-73
2020/12/17 03:36:16;;;;;;;;;;;1.10;99.90;;;;;;5014245;28;19957;-76
2020/12/17 03:38:42;;;;;;;;;;;1.00;99.90;;;;;;5014575;28;20371;-73
2020/12/17 03:41:07;;;;;;;;;;;1.00;99.90;;;;;;5014422;28;19956;-73
2020/12/17 03:43:33;;;;;;;;;;;1.00;99.90;;;;;;5014314;28;19919;-73
2020/12/17 03:45:58;;;;;;;;;;;1.00;99.90;;;;;;5014171;28;19916;-73
2020/12/17 03:48:24;;;;;;;;;;;1.00;99.90;;;;;;5013094;28;19910;-72
2020/12/17 03:50:49;;;;;;;;;;;1.00;99.90;;;;;;5014269;28;19929;-73
2020/12/17 03:53:15;;;;;;;;;;;1.00;99.90;;;;;;5014103;28;19910;-76
2020/12/17 03:55:40;;;;;;;;;;;1.00;99.90;;;;;;5015146;28;20290;-73
2020/12/17 03:58:06;;;;;;;;;;;0.90;99.90;;;;;;5014063;28;19963;-72
2020/12/17 04:00:31;;;;;;;;;;;0.90;99.90;;;;;;5014201;28;19916;-73
2020/12/17 04:02:57;;;;;;;;;;;0.90;99.90;;;;;;5014089;28;19910;-72
2020/12/17 04:05:22;;;;;;;;;;;0.80;99.90;;;;;;5013748;28;20664;-72
2020/12/17 04:07:48;;;;;;;;;;;0.80;99.90;;;;;;5013689;28;19913;-73
2020/12/17 04:10:13;;;;;;;;;;;0.80;99.90;;;;;;5014325;28;19910;-76
2020/12/17 04:12:38;;;;;;;;;;;0.80;99.90;;;;;;5013958;28;19909;-72
2020/12/17 04:15:04;;;;;;;;;;;0.80;99.90;;;;;;5013397;28;20273;-72
2020/12/17 04:17:30;;;;;;;;;;;0.80;99.90;;;;;;5013360;28;19909;-74
2020/12/17 04:19:55;;;;;;;;;;;0.80;99.90;;;;;;5012396;28;19910;-72
2020/12/17 04:22:20;;;;;;;;;;;0.80;99.90;;;;;;5013569;28;19910;-72
2020/12/17 04:24:46;;;;;;;;;;;0.70;99.90;;;;;;5015189;28;19920;-73
2020/12/17 04:27:12;;;;;;;;;;;0.70;99.90;;;;;;5027993;28;20370;-73
2020/12/17 04:29:38;;;;;;;;;;;0.70;99.90;;;;;;5033797;28;20407;-74
2020/12/17 04:32:03;;;;;;;;;;;0.80;99.90;;;;;;5031968;28;19917;-73
2020/12/17 04:34:29;;;;;;;;;;;0.80;99.90;;;;;;5033155;28;19913;-72
2020/12/17 04:36:54;;;;;;;;;;;0.80;99.90;;;;;;5032812;28;19916;-73
2020/12/17 04:39:20;;;;;;;;;;;0.80;99.90;;;;;;5033149;28;20278;-75
2020/12/17 04:41:46;;;;;;;;;;;0.80;99.90;;;;;;5033012;28;19917;-72
2020/12/17 04:44:13;;;;;;;;;;;0.80;99.90;;;;;;5033049;28;19913;-72
2020/12/17 04:46:39;;;;;;;;;;;0.80;99.90;;;;;;5032756;28;20358;-73
2020/12/17 04:49:05;;;;;;;;;;;0.80;99.90;;;;;;5032762;28;19921;-74
2020/12/17 04:51:31;;;;;;;;;;;0.70;99.90;;;;;;5032895;28;19921;-75
2020/12/17 04:54:00;;;;;;;;;;;0.70;99.90;;;;;;5032750;28;19916;-74
2020/12/17 04:56:26;;;;;;;;;;;0.70;99.90;;;;;;5014219;28;19916;-73
2020/12/17 04:58:55;;;;;;;;;;;0.70;99.90;;;;;;5013139;28;19940;-72
2020/12/17 05:01:21;;;;;;;;;;;0.70;99.90;;;;;;5011658;28;19909;-73
2020/12/17 05:03:47;;;;;;;;;;;0.70;99.90;;;;;;5013181;28;19967;-75
2020/12/17 05:06:21;;;;;;;;;;;0.70;99.90;;;;;;5012402;28;19913;-73
2020/12/17 05:08:47;;;;;;;;;;;0.70;99.90;;;;;;5012878;28;19909;-73
2020/12/17 05:11:15;;;;;;;;;;;0.70;99.90;;;;;;5012814;28;20334;-72
2020/12/17 05:13:41;;;;;;;;;;;0.80;99.90;;;;;;5012707;28;19909;-75
2020/12/17 05:16:06;;;;;;;;;;;0.80;99.90;;;;;;5011011;28;20378;-73
2020/12/17 05:18:32;;;;;;;;;;;0.90;99.90;;;;;;5012652;28;20345;-72
2020/12/17 05:20:58;;;;;;;;;;;0.80;99.90;;;;;;5012561;28;20008;-73
2020/12/17 05:23:24;;;;;;;;;;;0.80;99.90;;;;;;5012404;28;19910;-73
2020/12/17 05:25:55;;;;;;;;;;;0.80;99.90;;;;;;5013343;28;19909;-72
2020/12/17 05:28:21;;;;;;;;;;;0.60;99.90;;;;;;5010054;28;19910;-72
2020/12/17 05:30:47;;;;;;;;;;;0.50;99.90;;;;;;5012404;28;20259;-72
2020/12/17 05:33:12;;;;;;;;;;;0.50;99.90;;;;;;5012354;28;19914;-72
2020/12/17 05:35:39;;;;;;;;;;;0.50;99.90;;;;;;5012009;28;19996;-74
2020/12/17 05:38:06;;;;;;;;;;;0.60;99.90;;;;;;5012421;28;19909;-72
2020/12/17 05:40:35;;;;;;;;;;;0.60;99.90;;;;;;5012275;28;19910;-75
2020/12/17 05:43:01;;;;;;;;;;;0.60;99.90;;;;;;5012164;28;20374;-72
2020/12/17 05:45:27;;;;;;;;;;;0.60;99.90;;;;;;5010679;28;19957;-73
2020/12/17 05:48:09;;;;;;;;;;;0.60;99.90;;;;;;5010727;28;19963;-73
2020/12/17 05:50:34;;;;;;;;;;;0.60;99.90;;;;;;5011945;28;20000;-73
2020/12/17 05:53:02;;;;;;;;;;;0.60;99.90;;;;;;5012085;28;20001;-73
2020/12/17 05:55:29;;;;;;;;;;;0.60;99.90;;;;;;5013309;28;20369;-72
2020/12/17 05:57:55;;;;;;;;;;;0.60;99.90;;;;;;5011430;28;19955;-72
2020/12/17 06:00:20;;;;;;;;;;;0.60;99.90;;;;;;5011937;28;19953;-72
2020/12/17 06:02:46;;;;;;;;;;;0.60;99.90;;;;;;5010608;28;19910;-75
2020/12/17 06:05:12;;;;;;;;;;;0.50;99.90;;;;;;5011710;28;19913;-72
2020/12/17 06:07:41;;;;;;;;;;;0.50;99.90;;;;;;5010334;28;20494;-72
2020/12/17 06:10:08;;;;;;;;;;;0.60;99.90;;;;;;5011663;28;19972;-73
2020/12/17 06:12:34;;;;;;;;;;;0.50;99.90;;;;;;5011618;28;19920;-72
2020/12/17 06:15:01;;;;;;;;;;;0.60;99.90;;;;;;5011834;28;20096;-72
2020/12/17 06:17:27;;;;;;;;;;;0.60;99.90;;;;;;5009975;28;19910;-72
2020/12/17 06:19:54;;;;;;;;;;;0.60;99.90;;;;;;5011654;28;19921;-72
2020/12/17 06:22:20;;;;;;;;;;;0.60;99.90;;;;;;5011515;28;19909;-72
2020/12/17 06:24:45;;;;;;;;;;;0.70;99.90;;;;;;5012889;28;20389;-73
2020/12/17 06:27:14;;;;;;;;;;;0.60;99.90;;;;;;5010963;28;19909;-73
2020/12/17 06:29:48;;;;;;;;;;;0.70;99.90;;;;;;5011575;28;19914;-72
2020/12/17 06:32:15;;;;;;;;;;;0.70;99.90;;;;;;5011548;28;20370;-73
2020/12/17 06:34:42;;;;;;;;;;;0.80;99.90;;;;;;5011450;28;20001;-75
2020/12/17 06:37:10;;;;;;;;;;;0.90;99.90;;;;;;5011143;28;19944;-73
2020/12/17 06:39:35;;;;;;;;;;;1.00;99.90;;;;;;5013915;28;20370;-72
2020/12/17 06:42:01;;;;;;;;;;;1.10;99.90;;;;;;5015526;28;19909;-73
2020/12/17 06:44:30;;;;;;;;;;;1.20;99.90;;;;;;5015486;28;19967;-72
2020/12/17 06:46:57;;;;;;;;;;;1.30;99.90;;;;;;5015339;28;20024;-73
2020/12/17 06:49:23;;;;;;;;;;;1.30;99.90;;;;;;5015263;28;19953;-73
2020/12/17 06:52:00;;;;;;;;;;;1.40;99.90;;;;;;5015358;28;19909;-73
2020/12/17 06:54:25;;;;;;;;;;;1.50;99.90;;;;;;5016795;28;19909;-74
2020/12/17 06:57:07;;;;;;;;;;;1.70;99.90;;;;;;5014756;28;19917;-72
2020/12/17 06:59:33;;;;;;;;;;;1.80;99.90;;;;;;5014043;28;19935;-72
2020/12/17 07:01:59;;;;;;;;;;;1.90;99.90;;;;;;5015218;28;20370;-72
2020/12/17 07:04:33;;;;;;;;;;;2.00;99.90;;;;;;5014764;28;19921;-73
2020/12/17 07:07:08;;;;;;;;;;;2.10;99.90;;;;;;5013489;28;20362;-72
2020/12/17 07:09:33;;;;;;;;;;;2.20;99.90;;;;;;5015065;28;20493;-73
2020/12/17 07:11:59;;;;;;;;;;;2.30;99.90;;;;;;5013751;28;19909;-72
2020/12/17 07:14:24;;;;;;;;;;;2.30;99.90;;;;;;5014955;28;20426;-73
2020/12/17 07:16:52;;;;;;;;;;;2.40;99.90;;;;;;5013225;28;19910;-73
2020/12/17 07:19:19;;;;;;;;;;;2.50;99.90;;;;;;5014908;28;20332;-73
2020/12/17 07:21:45;;;;;;;;;;;2.60;99.90;;;;;;5014810;28;20298;-73
2020/12/17 07:24:23;;;;;;;;;;;2.70;99.90;;;;;;5014377;28;19913;-73
2020/12/17 07:26:48;;;;;;;;;;;2.80;99.90;;;;;;5027852;28;20370;-73
2020/12/17 07:29:14;;;;;;;;;;;2.80;99.90;;;;;;5033756;28;19909;-75
2020/12/17 07:31:39;;;;;;;;;;;2.80;99.90;;;;;;5033362;28;19919;-73
2020/12/17 07:34:14;;;;;;;;;;;2.90;99.90;;;;;;5033593;28;19917;-73
2020/12/17 07:36:42;;;;;;;;;;;3.00;99.90;;;;;;5033708;28;19909;-73
2020/12/17 07:39:08;;;;;;;;;;;3.00;99.90;;;;;;5034449;28;20392;-75
2020/12/17 07:41:33;;;;;;;;;;;3.00;99.90;;;;;;5034212;28;19952;-73
2020/12/17 07:43:59;;;;;;;;;;;3.10;99.90;;;;;;5033986;28;19920;-73
2020/12/17 07:46:34;;;;;;;;;;;3.20;99.90;;;;;;5033892;28;19913;-76
2020/12/17 07:49:02;;;;;;;;;;;3.30;99.90;;;;;;5032765;28;19913;-73
2020/12/17 07:51:28;;;;;;;;;;;3.30;99.90;;;;;;5016529;28;19913;-75
2020/12/17 07:53:53;;;;;;;;;;;3.40;99.90;;;;;;5010458;28;20362;-73
2020/12/17 07:56:19;;;;;;;;;;;3.50;99.90;;;;;;5025985;28;19913;-73
2020/12/17 07:58:46;;;;;;;;;;;3.60;99.90;;;;;;5016346;28;19914;-73
2020/12/17 08:01:12;;;;;;;;;;;3.70;99.90;;;;;;5028925;28;19909;-73
2020/12/17 08:03:43;;;;;;;;;;;3.70;99.90;;;;;;5013748;28;19909;-73
2020/12/17 08:06:09;;;;;;;;;;;3.80;99.90;;;;;;5029633;28;19996;-74
2020/12/17 08:08:35;;;;;;;;;;;3.90;99.90;;;;;;5034044;28;19909;-74
2020/12/17 08:11:01;;;;;;;;;;;3.90;99.90;;;;;;5032708;28;19914;-73
2020/12/17 08:13:26;;;;;;;;;;;4.00;99.90;;;;;;5033953;28;19909;-73
2020/12/17 08:15:52;;;;;;;;;;;4.10;99.90;;;;;;5033533;28;19913;-73
2020/12/17 08:18:22;;;;;;;;;;;4.20;99.90;;;;;;5033760;28;19999;-73
2020/12/17 08:20:47;;;;;;;;;;;4.20;99.90;;;;;;5033651;28;19909;-75
2020/12/17 08:23:18;;;;;;;;;;;4.40;99.90;;;;;;5033573;28;19921;-73
2020/12/17 08:25:44;;;;;;;;;;;4.40;99.90;;;;;;5028943;28;20012;-75
2020/12/17 08:28:10;;;;;;;;;;;4.50;99.90;;;;;;5029669;28;19916;-73
2020/12/17 08:30:35;;;;;;;;;;;4.60;99.90;;;;;;5033581;28;19909;-75
2020/12/17 08:33:01;;;;;;;;;;;4.60;99.90;;;;;;5031932;28;19910;-73
2020/12/17 08:35:26;;;;;;;;;;;4.70;99.90;;;;;;5033291;28;19909;-73
2020/12/17 08:37:55;;;;;;;;;;;4.80;99.90;;;;;;5033099;28;19917;-74
2020/12/17 08:40:25;;;;;;;;;;;4.80;99.90;;;;;;5033131;28;19909;-73
2020/12/17 08:42:52;;;;;;;;;;;5.00;99.90;;;;;;5033263;28;19909;-73
2020/12/17 08:45:18;;;;;;;;;;;5.10;99.90;;;;;;5033121;28;19913;-75
2020/12/17 08:47:45;;;;;;;;;;;5.20;99.90;;;;;;5032777;28;19909;-76
2020/12/17 08:50:10;;;;;;;;;;;5.30;99.90;;;;;;5032214;28;20347;-74
2020/12/17 08:52:36;;;;;;;;;;;5.40;99.90;;;;;;5032734;28;20000;-74
2020/12/17 08:55:09;;;;;;;;;;;5.50;99.90;;;;;;5032795;28;19920;-73
2020/12/17 08:57:35;;;;;;;;;;;5.50;99.90;;;;;;5025812;28;20382;-73
2020/12/17 09:00:01;;;;;;;;;;;5.50;99.90;;;;;;5025960;28;19964;-73
2020/12/17 09:02:27;;;;;;;;;;;5.60;99.90;;;;;;5021843;28;20004;-74
2020/12/17 09:04:53;;;;;;;;;;;5.70;99.90;;;;;;5013744;28;20012;-73
2020/12/17 09:07:22;;;;;;;;;;;5.70;99.90;;;;;;5032122;28;19910;-73
2020/12/17 09:09:48;;;;;;;;;;;5.80;99.90;;;;;;5032753;28;19916;-77
2020/12/17 09:12:13;;;;;;;;;;;5.80;99.90;;;;;;5032616;28;20274;-74
2020/12/17 09:14:39;;;;;;;;;;;6.00;99.90;;;;;;5032910;28;19909;-74
2020/12/17 09:17:15;;;;;;;;;;;6.00;99.90;;;;;;5032220;28;19916;-75
2020/12/17 09:19:40;;;;;;;;;;;6.10;99.90;;;;;;5020039;28;19921;-74
2020/12/17 09:22:06;;;;;;;;;;;6.10;99.90;;;;;;5012369;28;20212;-73
2020/12/17 09:24:33;;;;;;;;;;;6.10;99.90;;;;;;5011087;28;20401;-73
2020/12/17 09:27:18;;;;;;;;;;;6.20;99.90;;;;;;5012317;28;19910;-74
2020/12/17 09:30:02;;;;;;;;;;;6.20;99.90;;;;;;5010753;28;19988;-74
2020/12/17 09:32:28;;;;;;;;;;;6.30;99.90;;;;;;5012340;28;19913;-74
2020/12/17 09:35:04;;;;;;;;;;;6.40;99.90;;;;;;5012545;28;19996;-74
2020/12/17 09:37:29;;;;;;;;;;;6.50;99.90;;;;;;5012083;28;19920;-74
2020/12/17 09:39:55;;;;;;;;;;;6.80;99.90;;;;;;5012421;28;19909;-78
2020/12/17 09:42:20;;;;;;;;;;;7.20;99.90;;;;;;5012325;28;20259;-74
2020/12/17 09:44:46;;;;;;;;;;;7.70;99.90;;;;;;5011985;28;19918;-74
2020/12/17 09:47:11;;;;;;;;;;;8.10;99.90;;;;;;5012205;28;19913;-74
2020/12/17 09:49:38;;;;;;;;;;;8.50;99.90;;;;;;5014525;28;19917;-78
2020/12/17 09:52:05;;;;;;;;;;;8.80;99.90;;;;;;5026119;28;19913;-74
2020/12/17 09:54:31;;;;;;;;;;;9.00;99.90;;;;;;5032300;28;19961;-74
2020/12/17 09:57:00;;;;;;;;;;;9.20;99.90;;;;;;5031658;28;19952;-74
2020/12/17 09:59:26;;;;;;;;;;;9.40;99.90;;;;;;5012094;28;19909;-74
2020/12/17 10:01:55;;;;;;;;;;;9.40;99.90;;;;;;5012299;28;19909;-77
2020/12/17 10:04:20;;;;;;;;;;;9.40;99.90;;;;;;5012314;28;19917;-74
2020/12/17 10:06:46;;;;;;;;;;;9.30;99.90;;;;;;5012065;28;20330;-74
2020/12/17 10:09:11;;;;;;;;;;;9.40;99.90;;;;;;5010725;28;19910;-74
2020/12/17 10:11:37;;;;;;;;;;;9.40;99.90;;;;;;5010898;28;19909;-74
2020/12/17 10:14:02;;;;;;;;;;;9.50;99.90;;;;;;5011059;28;19913;-74
2020/12/17 10:16:28;;;;;;;;;;;9.60;99.90;;;;;;5011692;28;20345;-78
2020/12/17 10:18:53;;;;;;;;;;;9.70;99.90;;;;;;5013830;28;19928;-74
2020/12/17 10:21:18;;;;;;;;;;;9.70;99.90;;;;;;5020719;28;19944;-74
2020/12/17 10:23:44;;;;;;;;;;;9.70;99.90;;;;;;5031286;28;20281;-77
2020/12/17 10:26:09;;;;;;;;;;;9.60;99.90;;;;;;5029864;28;19955;-73
2020/12/17 10:28:35;;;;;;;;;;;9.40;99.90;;;;;;5031226;28;19916;-74
2020/12/17 10:31:00;;;;;;;;;;;9.20;99.90;;;;;;5031398;28;19935;-74
2020/12/17 10:33:26;;;;;;;;;;;9.00;99.90;;;;;;5031332;28;19932;-76
2020/12/17 10:35:51;;;;;;;;;;;8.90;99.90;;;;;;5030995;28;20152;-74
2020/12/17 10:38:17;;;;;;;;;;;8.80;99.90;;;;;;5031377;28;19909;-74
2020/12/17 10:40:42;;;;;;;;;;;8.70;99.90;;;;;;5030034;28;20366;-77
2020/12/17 10:43:08;;;;;;;;;;;8.70;99.90;;;;;;5030914;28;19909;-75
2020/12/17 10:45:33;;;;;;;;;;;8.70;99.90;;;;;;5030923;28;19974;-74
2020/12/17 10:47:59;;;;;;;;;;;8.60;99.90;;;;;;5029687;28;19909;-75
2020/12/17 10:50:24;;;;;;;;;;;8.60;99.90;;;;;;5013269;28;19917;-74
2020/12/17 10:52:50;;;;;;;;;;;8.60;99.90;;;;;;5010087;28;20326;-74
2020/12/17 10:55:15;;;;;;;;;;;8.60;99.90;;;;;;5011495;28;19910;-74
2020/12/17 10:57:41;;;;;;;;;;;8.60;99.90;;;;;;5009886;28;19944;-78
2020/12/17 11:00:06;;;;;;;;;;;8.60;99.90;;;;;;5011105;28;19914;-76
2020/12/17 11:02:32;;;;;;;;;;;8.70;99.90;;;;;;5030106;28;19955;-73
2020/12/17 11:04:57;;;;;;;;;;;8.70;99.90;;;;;;5030756;28;19920;-74
2020/12/17 11:07:23;;;;;;;;;;;8.80;99.90;;;;;;5030797;28;20000;-77
2020/12/17 11:09:48;;;;;;;;;;;8.80;99.90;;;;;;5029773;28;19909;-74
2020/12/17 11:12:14;;;;;;;;;;;8.90;99.90;;;;;;5030853;28;20374;-74
2020/12/17 11:14:39;;;;;;;;;;;8.90;99.90;;;;;;5030840;28;19920;-75
2020/12/17 11:17:05;;;;;;;;;;;8.90;99.90;;;;;;5030607;28;20337;-73
2020/12/17 11:19:30;;;;;;;;;;;8.90;99.90;;;;;;5020236;28;20370;-74
2020/12/17 11:22:00;;;;;;;;;;;8.90;99.90;;;;;;5010854;28;19910;-74
2020/12/17 11:24:25;;;;;;;;;;;8.90;99.90;;;;;;5011550;28;19913;-77
2020/12/17 11:26:51;;;;;;;;;;;8.90;99.90;;;;;;5014331;28;19963;-75
2020/12/17 11:29:16;;;;;;;;;;;8.90;99.90;;;;;;5014744;28;20365;-74
2020/12/17 11:31:45;;;;;;;;;;;9.00;99.90;;;;;;5023815;28;19909;-75
2020/12/17 11:34:11;;;;;;;;;;;9.00;99.90;;;;;;5015286;28;19909;-74
2020/12/17 11:36:36;;;;;;;;;;;9.10;99.90;;;;;;5018584;28;19971;-76
2020/12/17 11:39:02;;;;;;;;;;;9.10;99.90;;;;;;5011662;28;20004;-75
2020/12/17 11:41:28;;;;;;;;;;;9.10;99.90;;;;;;5015361;28;20374;-74
2020/12/17 11:43:53;;;;;;;;;;;9.20;99.90;;;;;;5029101;28;19917;-74
2020/12/17 11:46:20;;;;;;;;;;;9.20;99.90;;;;;;5022178;28;20143;-74
2020/12/17 11:48:46;;;;;;;;;;;9.30;99.90;;;;;;5014186;28;19964;-74
2020/12/17 11:51:15;;;;;;;;;;;9.30;99.90;;;;;;5012087;28;19917;-73
2020/12/17 11:53:41;;;;;;;;;;;9.30;99.90;;;;;;5026507;28;20009;-74
2020/12/17 11:56:06;;;;;;;;;;;9.40;99.90;;;;;;5012559;28;20003;-75
2020/12/17 11:58:32;;;;;;;;;;;9.40;99.90;;;;;;5021456;28;20354;-74
2020/12/17 12:00:57;;;;;;;;;;;9.40;99.90;;;;;;5012267;28;19909;-74
2020/12/17 12:03:22;;;;;;;;;;;9.40;99.90;;;;;;5015991;28;20012;-74
2020/12/17 12:05:48;;;;;;;;;;;9.50;99.90;;;;;;5025832;28;19936;-78
2020/12/17 12:08:13;;;;;;;;;;;9.60;99.90;;;;;;5013653;28;19909;-76
2020/12/17 12:10:39;;;;;;;;;;;9.60;99.90;;;;;;5010497;28;19929;-73
2020/12/17 12:13:04;;;;;;;;;;;9.70;99.90;;;;;;5013704;28;20281;-78
2020/12/17 12:15:30;;;;;;;;;;;9.80;99.90;;;;;;5009303;28;19968;-73
2020/12/17 12:17:55;;;;;;;;;;;9.70;99.90;;;;;;5020948;28;19909;-78
2020/12/17 12:20:21;;;;;;;;;;;9.70;99.90;;;;;;5012499;28;19910;-74
2020/12/17 12:22:46;;;;;;;;;;;9.70;99.90;;;;;;5020920;28;20370;-73
2020/12/17 12:25:12;;;;;;;;;;;9.80;99.90;;;;;;5011565;28;20126;-74
2020/12/17 12:27:37;;;;;;;;;;;9.70;99.90;;;;;;5021698;28;19943;-74
2020/12/17 12:30:03;;;;;;;;;;;9.70;99.90;;;;;;5022618;28;19913;-78
2020/12/17 12:32:28;;;;;;;;;;;9.70;99.90;;;;;;5014823;28;20477;-74
2020/12/17 12:34:54;;;;;;;;;;;9.70;99.90;;;;;;5010698;28;20329;-74
2020/12/17 12:37:19;;;;;;;;;;;9.70;99.90;;;;;;5020923;28;19917;-74
2020/12/17 12:39:45;;;;;;;;;;;9.60;99.90;;;;;;5009062;28;19909;-77
2020/12/17 12:42:10;;;;;;;;;;;9.60;99.90;;;;;;5010606;28;20096;-74
2020/12/17 12:44:36;;;;;;;;;;;9.60;99.90;;;;;;5013856;28;19913;-73
2020/12/17 12:47:02;;;;;;;;;;;9.60;99.90;;;;;;5028415;28;19909;-76
2020/12/17 12:49:28;;;;;;;;;;;9.60;99.90;;;;;;5019760;28;19917;-74
2020/12/17 12:51:53;;;;;;;;;;;9.60;99.90;;;;;;5017551;28;19916;-78
2020/12/17 12:54:19;;;;;;;;;;;9.60;99.90;;;;;;5027022;28;19909;-74
2020/12/17 12:56:44;;;;;;;;;;;9.60;99.90;;;;;;5026950;28;19917;-73
2020/12/17 12:59:10;;;;;;;;;;;9.50;99.90;;;;;;5026546;28;19910;-75
2020/12/17 13:01:36;;;;;;;;;;;9.50;99.90;;;;;;5017624;28;20404;-73
2020/12/17 13:04:01;;;;;;;;;;;9.50;99.90;;;;;;5023110;28;20389;-76
2020/12/17 13:06:27;;;;;;;;;;;9.40;99.90;;;;;;5027089;28;19920;-76
2020/12/17 13:08:52;;;;;;;;;;;9.40;99.90;;;;;;5019059;28;19920;-75
2020/12/17 13:11:19;;;;;;;;;;;9.40;99.90;;;;;;5026362;28;19909;-75
2020/12/17 13:13:45;;;;;;;;;;;9.50;99.90;;;;;;5019401;28;20390;-76
2020/12/17 13:16:10;;;;;;;;;;;9.50;99.90;;;;;;5018612;28;20373;-76
2020/12/17 13:18:36;;;;;;;;;;;9.60;99.90;;;;;;5015763;28;19910;-76
2020/12/17 13:21:01;;;;;;;;;;;9.50;99.90;;;;;;5021230;28;19967;-76
2020/12/17 13:23:31;;;;;;;;;;;9.50;99.90;;;;;;5026372;28;20377;-76
2020/12/17 13:25:56;;;;;;;;;;;9.50;99.90;;;;;;5017536;28;20294;-76
2020/12/17 13:28:22;;;;;;;;;;;9.50;99.90;;;;;;5024080;28;19910;-77
2020/12/17 13:30:48;;;;;;;;;;;9.50;99.90;;;;;;5022152;28;19909;-76
2020/12/17 13:33:14;;;;;;;;;;;9.40;99.90;;;;;;5014322;28;20375;-76
2020/12/17 13:35:40;;;;;;;;;;;9.40;99.90;;;;;;5015739;28;20311;-76
2020/12/17 13:38:05;;;;;;;;;;;9.40;99.90;;;;;;5019722;28;19909;-75
2020/12/17 13:40:31;;;;;;;;;;;9.40;99.90;;;;;;5018692;28;20011;-75
2020/12/17 13:42:56;;;;;;;;;;;9.40;99.90;;;;;;5026949;28;19909;-75
2020/12/17 13:45:22;;;;;;;;;;;9.40;99.90;;;;;;5015777;28;19914;-76
2020/12/17 13:47:48;;;;;;;;;;;9.40;99.90;;;;;;5023476;28;20466;-75
2020/12/17 13:50:13;;;;;;;;;;;9.50;99.90;;;;;;5021538;28;19964;-75
2020/12/17 13:52:40;;;;;;;;;;;9.50;99.90;;;;;;5027199;28;20407;-75
2020/12/17 13:55:05;;;;;;;;;;;9.40;99.90;;;;;;5023278;28;20382;-75
2020/12/17 13:57:31;;;;;;;;;;;9.40;99.90;;;;;;5030025;28;19987;-77
2020/12/17 13:59:56;;;;;;;;;;;9.40;99.90;;;;;;5028381;28;19909;-75
2020/12/17 14:02:22;;;;;;;;;;;9.40;99.90;;;;;;5020282;28;19956;-76
2020/12/17 14:04:49;;;;;;;;;;;9.40;99.90;;;;;;5021340;28;20362;-76
2020/12/17 14:07:14;;;;;;;;;;;9.40;99.90;;;;;;5022213;28;19909;-75
2020/12/17 14:09:40;;;;;;;;;;;9.50;99.90;;;;;;5020278;28;20444;-77
2020/12/17 14:12:05;;;;;;;;;;;9.40;99.90;;;;;;5015914;28;20329;-78
2020/12/17 14:14:31;;;;;;;;;;;9.40;99.90;;;;;;5024812;28;20004;-75
2020/12/17 14:16:56;;;;;;;;;;;9.50;99.90;;;;;;5011972;28;19910;-75
2020/12/17 14:19:22;;;;;;;;;;;9.50;99.90;;;;;;5023804;28;19909;-78
2020/12/17 14:21:47;;;;;;;;;;;9.40;99.90;;;;;;5021664;28;20028;-75
2020/12/17 14:24:12;;;;;;;;;;;9.40;99.90;;;;;;5010894;28;19932;-75